Time;durP1;ratioP1;P1;durP2;ratioP2;P2;SDS_P1;SDS_P2;PMS_P1;PMS_P2;Temp;Humidity;BMP_temperature;BMP_pressure;BME280_temperature;BME280_humidity;BME280_pressure;Samples;Min_cycle;Max_cycle;Signal;HPM_P1;HPM_P2
2022/12/27 00:01:21;;;;;;;2.40;1.07;;;6.50;99.90;;;;;;6122661;23;20505;-61
2022/12/27 00:03:49;;;;;;;10.20;1.20;;;6.50;99.90;;;;;;6122819;23;20405;-60
2022/12/27 00:06:19;;;;;;;3.90;1.27;;;6.40;99.90;;;;;;6121476;23;20408;-61
2022/12/27 00:08:52;;;;;;;4.80;0.93;;;6.40;99.90;;;;;;6121997;23;20427;-60
2022/12/27 00:11:22;;;;;;;2.33;0.73;;;6.40;99.90;;;;;;6121286;23;20406;-63
2022/12/27 00:13:49;;;;;;;14.13;3.93;;;6.30;99.90;;;;;;6122623;23;20836;-62
2022/12/27 00:16:17;;;;;;;3.97;1.40;;;6.30;99.90;;;;;;6122463;23;20395;-58
2022/12/27 00:18:45;;;;;;;3.27;1.00;;;6.20;99.90;;;;;;6117394;23;20435;-61
2022/12/27 00:21:16;;;;;;;2.60;1.57;;;6.10;99.90;;;;;;6119368;23;20462;-59
2022/12/27 00:23:47;;;;;;;7.03;2.00;;;6.10;99.90;;;;;;6122170;23;20948;-59
2022/12/27 00:26:16;;;;;;;14.30;1.40;;;6.00;99.90;;;;;;6122877;23;20392;-59
2022/12/27 00:28:45;;;;;;;1.87;0.60;;;6.00;99.90;;;;;;6122099;23;20407;-58
2022/12/27 00:31:12;;;;;;;2.10;1.27;;;5.90;99.90;;;;;;6122174;23;20455;-60
2022/12/27 00:33:41;;;;;;;1.80;1.00;;;5.90;99.90;;;;;;6122789;23;20391;-58
2022/12/27 00:36:13;;;;;;;5.90;1.40;;;5.80;99.90;;;;;;6119765;23;20435;-59
2022/12/27 00:38:41;;;;;;;1.27;1.00;;;5.80;99.90;;;;;;6122425;23;20395;-61
2022/12/27 00:41:09;;;;;;;5.27;1.23;;;5.80;99.90;;;;;;6116366;23;20407;-65
2022/12/27 00:43:39;;;;;;;2.90;0.80;;;5.80;99.90;;;;;;6123251;23;20412;-66
2022/12/27 00:46:07;;;;;;;5.67;1.13;;;5.80;99.90;;;;;;6123209;23;20491;-62
2022/12/27 00:48:34;;;;;;;6.53;1.20;;;5.80;99.90;;;;;;6123691;23;20442;-63
2022/12/27 00:51:03;;;;;;;4.07;1.33;;;5.80;99.90;;;;;;6123521;23;20388;-67
2022/12/27 00:53:31;;;;;;;2.80;1.00;;;5.80;99.90;;;;;;6123346;23;20463;-67
2022/12/27 00:55:58;;;;;;;1.30;0.80;;;5.80;99.90;;;;;;6123760;23;20445;-61
2022/12/27 00:58:27;;;;;;;1.90;1.07;;;5.80;99.90;;;;;;6123501;23;20404;-60
2022/12/27 01:00:54;;;;;;;2.40;0.93;;;5.70;99.90;;;;;;6123065;23;20415;-64
2022/12/27 01:03:21;;;;;;;1.40;0.80;;;5.60;99.90;;;;;;6119907;23;20400;-61
2022/12/27 01:05:48;;;;;;;4.47;0.90;;;5.60;99.90;;;;;;6120203;23;20436;-61
2022/12/27 01:08:15;;;;;;;10.33;1.30;;;5.60;99.90;;;;;;6122071;23;20479;-59
2022/12/27 01:10:42;;;;;;;4.30;1.33;;;5.50;99.90;;;;;;6116462;23;20491;-62
2022/12/27 01:13:12;;;;;;;2.60;0.90;;;5.40;99.90;;;;;;6123260;23;20442;-59
2022/12/27 01:15:42;;;;;;;2.07;1.33;;;5.40;99.90;;;;;;6113260;23;20412;-58
2022/12/27 01:18:09;;;;;;;1.10;0.80;;;5.30;99.90;;;;;;6122002;23;20431;-62
2022/12/27 01:20:39;;;;;;;7.53;1.43;;;5.30;99.90;;;;;;6121917;23;20399;-59
2022/12/27 01:23:11;;;;;;;7.60;1.73;;;5.30;99.90;;;;;;6121767;23;20447;-58
2022/12/27 01:25:39;;;;;;;8.00;2.13;;;5.30;99.90;;;;;;6121634;23;20465;-59
2022/12/27 01:28:06;;;;;;;1.70;1.33;;;5.30;99.90;;;;;;6121625;23;20797;-59
2022/12/27 01:30:34;;;;;;;8.33;1.50;;;5.30;99.90;;;;;;6121631;23;20391;-58
2022/12/27 01:33:03;;;;;;;2.40;1.10;;;5.20;99.90;;;;;;6121739;23;20443;-58
2022/12/27 01:35:30;;;;;;;9.20;1.20;;;5.20;99.90;;;;;;6122876;23;20408;-59
2022/12/27 01:37:57;;;;;;;2.57;1.20;;;5.10;99.90;;;;;;6122848;23;20413;-60
2022/12/27 01:40:25;;;;;;;7.03;1.50;;;5.00;99.90;;;;;;6122677;23;20427;-61
2022/12/27 01:42:51;;;;;;;1.00;0.67;;;5.00;99.90;;;;;;6121301;23;20400;-59
2022/12/27 01:45:19;;;;;;;0.90;0.80;;;4.90;99.90;;;;;;6121184;23;20462;-60
2022/12/27 01:47:59;;;;;;;9.83;1.10;;;4.80;99.90;;;;;;6121448;23;20419;-61
2022/12/27 01:50:33;;;;;;;1.00;0.87;;;4.90;99.90;;;;;;6122173;23;20395;-64
2022/12/27 01:53:06;;;;;;;1.83;1.40;;;4.80;99.90;;;;;;6123153;23;20419;-62
2022/12/27 01:55:38;;;;;;;5.80;2.53;;;4.80;99.90;;;;;;6121639;23;20398;-62
2022/12/27 01:58:09;;;;;;;1.43;1.10;;;4.80;99.90;;;;;;6114688;23;20458;-63
2022/12/27 02:00:37;;;;;;;10.70;1.40;;;4.80;99.90;;;;;;6121700;23;20384;-62
2022/12/27 02:03:05;;;;;;;1.87;0.90;;;4.80;99.90;;;;;;6114525;23;20714;-60
2022/12/27 02:05:34;;;;;;;0.90;0.70;;;4.80;99.90;;;;;;6114743;23;20867;-59
2022/12/27 02:08:14;;;;;;;1.00;0.70;;;4.70;99.90;;;;;;6122188;23;20410;-60
2022/12/27 02:10:42;;;;;;;2.70;1.00;;;4.70;99.90;;;;;;6121681;23;20372;-60
2022/12/27 02:13:09;;;;;;;5.03;1.20;;;4.70;99.90;;;;;;6121805;23;20513;-60
2022/12/27 02:15:36;;;;;;;3.77;0.97;;;4.60;99.90;;;;;;6120134;23;20412;-60
2022/12/27 02:18:03;;;;;;;3.53;1.67;;;4.70;99.90;;;;;;6114026;23;20497;-62
2022/12/27 02:20:50;;;;;;;6.73;2.20;;;4.60;99.90;;;;;;6121099;23;20894;-61
2022/12/27 02:24:04;;;;;;;4.83;1.50;;;4.60;99.90;;;;;;6121874;23;20384;-62
2022/12/27 02:26:53;;;;;;;3.90;1.23;;;4.60;99.90;;;;;;6102285;23;20471;-59
2022/12/27 02:29:48;;;;;;;1.80;1.00;;;4.60;99.90;;;;;;6122067;23;20375;-64
2022/12/27 02:32:20;;;;;;;3.63;0.97;;;4.60;99.90;;;;;;6099573;23;20463;-60
2022/12/27 02:34:56;;;;;;;4.30;1.30;;;4.60;99.90;;;;;;6118081;23;20395;-60
2022/12/27 02:37:26;;;;;;;2.30;1.00;;;4.60;99.90;;;;;;6118817;23;20430;-60
2022/12/27 02:39:54;;;;;;;3.43;1.40;;;4.60;99.90;;;;;;6122747;23;20400;-60
2022/12/27 02:54:00;;;;;;;2.17;1.20;;;4.60;99.90;;;;;;6123794;23;20427;-61
2022/12/27 03:03:19;;;;;;;2.43;1.03;;;4.70;99.90;;;;;;6123552;23;20427;-61
2022/12/27 03:05:27;;;;;;;4.67;1.47;;;4.60;99.90;;;;;;6123322;23;20406;-61
2022/12/27 03:08:01;;;;;;;2.80;0.90;;;4.70;99.90;;;;;;6123203;23;20391;-60
2022/12/27 03:16:22;;;;;;;1.30;1.10;;;4.60;99.90;;;;;;6124024;23;20445;-61
2022/12/27 03:19:13;;;;;;;3.77;1.00;;;4.60;99.90;;;;;;6123438;23;20418;-59
2022/12/27 03:27:20;;;;;;;5.90;1.57;;;4.50;99.90;;;;;;6123293;23;20363;-60
2022/12/27 03:35:34;;;;;;;3.67;1.57;;;4.50;99.90;;;;;;6101376;23;20407;-62
2022/12/27 03:38:05;;;;;;;2.80;0.90;;;4.50;99.90;;;;;;6114497;23;20443;-60
2022/12/27 03:43:09;;;;;;;4.87;1.37;;;4.40;99.90;;;;;;6122735;23;20384;-59
2022/12/27 03:43:37;;;;;;;3.33;1.13;;;4.40;99.90;;;;;;6121977;23;20399;-62
2022/12/27 03:46:33;;;;;;;5.43;1.10;;;4.50;99.90;;;;;;6122797;23;20419;-60
2022/12/27 03:49:20;;;;;;;4.50;1.27;;;4.40;99.90;;;;;;6122703;23;20375;-60
2022/12/27 03:51:52;;;;;;;2.83;1.20;;;4.50;99.90;;;;;;6116394;23;20419;-63
2022/12/27 03:54:26;;;;;;;7.40;1.70;;;4.50;99.90;;;;;;6122304;23;20423;-62
2022/12/27 03:56:57;;;;;;;5.17;1.50;;;4.50;99.90;;;;;;6124013;23;20403;-62
2022/12/27 03:59:34;;;;;;;7.00;2.07;;;4.50;99.90;;;;;;6122618;23;20436;-60
2022/12/27 04:02:04;;;;;;;3.87;1.47;;;4.50;99.90;;;;;;6121506;23;20391;-60
2022/12/27 04:04:36;;;;;;;2.17;1.27;;;4.60;99.90;;;;;;6120008;23;20452;-60
2022/12/27 04:07:06;;;;;;;12.23;2.77;;;4.60;99.90;;;;;;6120554;23;20404;-60
2022/12/27 04:34:43;;;;;;;3.10;1.10;;;4.50;99.90;;;;;;6121541;23;20506;-63
2022/12/27 04:37:14;;;;;;;1.37;1.23;;;4.60;99.90;;;;;;6113895;23;20396;-60
2022/12/27 04:54:55;;;;;;;1.97;1.77;;;4.60;99.90;;;;;;6122540;23;20451;-60
2022/12/27 04:56:22;;;;;;;5.20;1.20;;;4.60;99.90;;;;;;6122560;23;20724;-61
2022/12/27 05:04:15;;;;;;;1.80;1.30;;;4.60;99.90;;;;;;6122398;23;20539;-58
2022/12/27 05:06:42;;;;;;;2.17;1.20;;;4.50;99.90;;;;;;6122604;23;20407;-60
2022/12/27 05:14:38;;;;;;;2.80;1.50;;;4.70;99.90;;;;;;6121827;23;20411;-57
2022/12/27 05:17:05;;;;;;;3.30;1.40;;;4.70;99.90;;;;;;6122813;23;20412;-60
2022/12/27 05:19:32;;;;;;;2.27;1.80;;;4.70;99.90;;;;;;6122830;23;20423;-61
2022/12/27 05:27:30;;;;;;;2.90;1.87;;;4.60;99.90;;;;;;6121936;23;20383;-64
2022/12/27 05:29:59;;;;;;;3.60;1.37;;;4.60;99.90;;;;;;6122795;23;20439;-63
2022/12/27 05:32:25;;;;;;;3.30;1.33;;;4.60;99.90;;;;;;6122684;23;20411;-65
2022/12/27 05:34:55;;;;;;;1.33;1.20;;;4.60;99.90;;;;;;6122457;23;20395;-65
2022/12/27 05:37:25;;;;;;;3.50;1.43;;;4.60;99.90;;;;;;6122890;23;20415;-66
2022/12/27 05:39:52;;;;;;;4.30;1.17;;;4.70;99.90;;;;;;6123111;23;20391;-62
2022/12/27 05:42:19;;;;;;;3.03;1.20;;;4.70;99.90;;;;;;6122507;23;20407;-65
2022/12/27 05:44:50;;;;;;;9.47;1.93;;;4.70;99.90;;;;;;6122417;23;20415;-66
2022/12/27 05:47:17;;;;;;;1.30;1.10;;;4.80;99.90;;;;;;6115701;23;20407;-65
2022/12/27 05:49:44;;;;;;;6.80;1.20;;;4.80;99.90;;;;;;6119962;23;20430;-64
2022/12/27 05:52:11;;;;;;;4.70;1.67;;;4.80;99.90;;;;;;6123310;23;20400;-63
2022/12/27 05:54:38;;;;;;;1.67;0.90;;;4.90;99.90;;;;;;6122352;23;20451;-59
2022/12/27 05:57:05;;;;;;;4.03;1.30;;;4.90;99.90;;;;;;6121939;23;20402;-60
2022/12/27 05:59:32;;;;;;;2.27;1.60;;;4.90;99.90;;;;;;6121472;23;20403;-61
2022/12/27 06:02:00;;;;;;;3.73;1.40;;;4.90;99.90;;;;;;6122048;23;20392;-60
2022/12/27 06:04:30;;;;;;;3.40;1.07;;;4.90;99.90;;;;;;6122410;23;20408;-61
2022/12/27 06:06:58;;;;;;;2.23;1.40;;;4.90;99.90;;;;;;6121642;23;20431;-61
2022/12/27 06:09:25;;;;;;;12.97;1.40;;;4.90;99.90;;;;;;6122463;23;20409;-60
2022/12/27 06:11:52;;;;;;;1.93;1.07;;;4.80;99.90;;;;;;6122673;23;20388;-59
2022/12/27 06:14:19;;;;;;;6.90;1.70;;;4.80;99.90;;;;;;6122091;23;20435;-59
2022/12/27 06:16:47;;;;;;;1.83;0.97;;;4.70;99.90;;;;;;6118985;23;20395;-60
2022/12/27 06:19:16;;;;;;;1.30;0.80;;;4.70;99.90;;;;;;6119088;23;20436;-60
2022/12/27 06:21:43;;;;;;;3.13;1.80;;;4.60;99.90;;;;;;6121822;23;20384;-55
2022/12/27 06:24:09;;;;;;;3.10;1.37;;;4.60;99.90;;;;;;6122918;23;20434;-62
2022/12/27 06:26:36;;;;;;;1.97;1.07;;;4.60;99.90;;;;;;6117664;23;20392;-58
2022/12/27 06:29:04;;;;;;;1.67;1.07;;;4.60;99.90;;;;;;6122239;23;20412;-60
2022/12/27 06:31:31;;;;;;;1.10;1.00;;;4.50;99.90;;;;;;6115372;23;20407;-62
2022/12/27 06:33:58;;;;;;;4.07;0.97;;;4.50;99.90;;;;;;6123680;23;20447;-60
2022/12/27 06:36:29;;;;;;;1.80;1.20;;;4.40;99.90;;;;;;6123198;23;20431;-62
2022/12/27 06:38:57;;;;;;;2.80;1.30;;;4.40;99.90;;;;;;6123283;23;20403;-61
2022/12/27 06:41:24;;;;;;;6.30;1.13;;;4.30;99.90;;;;;;6122909;23;20454;-62
2022/12/27 06:43:56;;;;;;;2.03;1.10;;;4.30;99.90;;;;;;6122552;23;20383;-61
2022/12/27 06:46:25;;;;;;;1.73;1.23;;;4.30;99.90;;;;;;6123087;23;20404;-62
2022/12/27 06:48:52;;;;;;;7.27;1.37;;;4.30;99.90;;;;;;6122010;23;20411;-60
2022/12/27 06:51:23;;;;;;;3.43;1.47;;;4.30;99.90;;;;;;6122935;23;20396;-61
2022/12/27 06:53:51;;;;;;;1.40;1.13;;;4.30;99.90;;;;;;6122628;23;20451;-61
2022/12/27 06:56:20;;;;;;;7.13;2.60;;;4.30;99.90;;;;;;6122425;23;20411;-62
2022/12/27 06:58:51;;;;;;;7.83;1.80;;;4.30;99.90;;;;;;6122444;23;20412;-59
2022/12/27 07:01:21;;;;;;;4.93;1.10;;;4.20;99.90;;;;;;6122941;23;20372;-62
2022/12/27 07:03:50;;;;;;;3.27;1.00;;;4.30;99.90;;;;;;6122194;23;20399;-60
2022/12/27 07:06:17;;;;;;;5.70;1.83;;;4.30;99.90;;;;;;6116508;23;20483;-59
2022/12/27 07:08:45;;;;;;;8.37;1.50;;;4.30;99.90;;;;;;6122582;23;20419;-60
2022/12/27 07:11:14;;;;;;;6.83;1.63;;;4.30;99.90;;;;;;6123627;23;20462;-62
2022/12/27 07:13:43;;;;;;;7.93;1.70;;;4.30;99.90;;;;;;6123651;23;20435;-62
2022/12/27 07:16:16;;;;;;;2.30;1.53;;;4.30;99.90;;;;;;6123047;23;20422;-63
2022/12/27 07:18:43;;;;;;;11.37;1.53;;;4.30;99.90;;;;;;6124696;23;20371;-64
2022/12/27 07:21:11;;;;;;;4.60;1.27;;;4.20;99.90;;;;;;6117660;23;20411;-63
2022/12/27 07:23:39;;;;;;;9.13;1.60;;;4.20;99.90;;;;;;6124078;23;20407;-61
2022/12/27 07:26:08;;;;;;;2.10;1.30;;;4.20;99.90;;;;;;6123970;23;20411;-59
2022/12/27 07:28:37;;;;;;;2.60;1.10;;;4.30;99.90;;;;;;6118044;23;20446;-61
2022/12/27 07:31:07;;;;;;;3.13;1.20;;;4.30;99.90;;;;;;6125380;23;20411;-60
2022/12/27 07:33:34;;;;;;;2.70;0.90;;;4.30;99.90;;;;;;6115187;23;20511;-60
2022/12/27 07:36:02;;;;;;;5.03;1.03;;;4.40;99.90;;;;;;6124547;23;20642;-61
2022/12/27 07:38:28;;;;;;;2.20;1.97;;;4.40;99.90;;;;;;6124932;23;20395;-61
2022/12/27 07:40:58;;;;;;;1.83;1.27;;;4.40;99.90;;;;;;6124273;23;20418;-61
2022/12/27 07:43:26;;;;;;;7.13;1.83;;;4.50;99.90;;;;;;6123963;23;20403;-61
2022/12/27 07:45:54;;;;;;;4.30;2.07;;;4.50;99.90;;;;;;6124380;23;20435;-59
2022/12/27 07:48:21;;;;;;;2.20;1.37;;;4.60;99.90;;;;;;6124528;23;20394;-59
2022/12/27 07:50:55;;;;;;;2.07;1.03;;;4.60;99.90;;;;;;6124237;23;20419;-61
2022/12/27 07:53:25;;;;;;;6.03;2.70;;;4.70;99.90;;;;;;6123972;23;20436;-60
2022/12/27 07:55:52;;;;;;;5.70;1.30;;;4.70;99.90;;;;;;6116536;23;20407;-58
2022/12/27 07:58:31;;;;;;;7.80;1.40;;;4.70;99.90;;;;;;6124539;23;20388;-61
2022/12/27 08:00:59;;;;;;;1.20;1.10;;;4.70;99.90;;;;;;6124237;23;20372;-62
2022/12/27 08:03:29;;;;;;;0.90;0.70;;;4.80;99.90;;;;;;6123747;23;20419;-62
2022/12/27 08:05:56;;;;;;;2.13;1.30;;;4.80;99.90;;;;;;6124012;23;20388;-59
2022/12/27 08:08:29;;;;;;;9.90;1.47;;;4.80;99.90;;;;;;6123484;23;20436;-58
2022/12/27 08:10:56;;;;;;;4.00;1.47;;;4.80;99.90;;;;;;6123581;23;20391;-61
2022/12/27 08:13:23;;;;;;;1.73;1.03;;;4.80;99.90;;;;;;6124401;23;20431;-60
2022/12/27 08:15:52;;;;;;;1.20;1.00;;;4.80;99.90;;;;;;6119608;23;20416;-56
2022/12/27 08:18:20;;;;;;;2.53;1.43;;;4.90;99.90;;;;;;6123434;23;20371;-63
2022/12/27 08:20:47;;;;;;;3.63;1.57;;;4.90;99.90;;;;;;6123452;23;20451;-63
2022/12/27 08:23:14;;;;;;;1.67;1.47;;;4.90;99.90;;;;;;6123800;23;20404;-61
2022/12/27 08:25:41;;;;;;;6.63;1.33;;;4.90;99.90;;;;;;6124516;23;20414;-60
2022/12/27 08:28:11;;;;;;;5.90;1.20;;;4.90;99.90;;;;;;6124234;23;20426;-59
2022/12/27 08:30:39;;;;;;;3.43;1.43;;;4.90;99.90;;;;;;6123778;23;20402;-59
2022/12/27 08:33:06;;;;;;;1.90;1.03;;;5.00;99.90;;;;;;6123595;23;20411;-59
2022/12/27 08:35:44;;;;;;;2.70;2.10;;;5.00;99.90;;;;;;6124081;23;20443;-60
2022/12/27 08:38:11;;;;;;;2.70;1.20;;;5.10;99.90;;;;;;6124125;23;20384;-58
2022/12/27 08:40:40;;;;;;;2.50;1.37;;;5.10;99.90;;;;;;6124226;23;20399;-59
2022/12/27 08:43:10;;;;;;;7.80;1.77;;;5.10;99.90;;;;;;6123951;23;20503;-61
2022/12/27 08:45:40;;;;;;;1.80;1.00;;;5.20;99.90;;;;;;6123466;23;20430;-63
2022/12/27 08:48:10;;;;;;;4.33;2.30;;;5.20;99.90;;;;;;6124378;23;20431;-61
2022/12/27 08:50:43;;;;;;;7.03;1.77;;;5.30;99.90;;;;;;6124135;23;20388;-61
2022/12/27 08:53:10;;;;;;;3.73;1.00;;;5.30;99.90;;;;;;6123376;23;20379;-62
2022/12/27 08:55:39;;;;;;;2.90;2.17;;;5.30;99.90;;;;;;6114934;23;20440;-61
2022/12/27 08:58:06;;;;;;;2.60;1.23;;;5.30;99.90;;;;;;6123695;23;20423;-62
2022/12/27 09:00:33;;;;;;;1.50;1.40;;;5.40;99.90;;;;;;6123835;23;20395;-62
2022/12/27 09:03:00;;;;;;;1.90;1.57;;;5.40;99.90;;;;;;6123386;23;20427;-63
2022/12/27 09:05:27;;;;;;;10.13;1.30;;;5.40;99.90;;;;;;6123625;23;20387;-60
2022/12/27 09:07:56;;;;;;;1.53;0.97;;;5.50;99.90;;;;;;6119475;23;20737;-63
2022/12/27 09:10:24;;;;;;;3.70;1.73;;;5.40;99.90;;;;;;6118223;23;20427;-61
2022/12/27 09:12:51;;;;;;;4.70;1.53;;;5.40;99.90;;;;;;6122838;23;20416;-63
2022/12/27 09:15:21;;;;;;;1.90;1.50;;;5.40;99.90;;;;;;6122681;23;20459;-64
2022/12/27 09:17:48;;;;;;;1.30;0.97;;;5.50;99.90;;;;;;6122305;23;20403;-60
2022/12/27 09:20:15;;;;;;;5.43;2.27;;;5.50;99.90;;;;;;6123267;23;20408;-60
2022/12/27 09:22:44;;;;;;;3.03;1.10;;;5.50;99.90;;;;;;6122900;23;20404;-61
2022/12/27 09:25:12;;;;;;;3.00;1.30;;;5.50;99.90;;;;;;6122358;23;20416;-62
2022/12/27 09:27:39;;;;;;;1.47;0.90;;;5.50;99.90;;;;;;6123066;23;20447;-58
2022/12/27 09:30:08;;;;;;;1.80;1.47;;;5.60;99.90;;;;;;6116280;23;20400;-63
2022/12/27 09:32:35;;;;;;;2.50;1.00;;;5.60;99.90;;;;;;6122806;23;20553;-62
2022/12/27 09:35:03;;;;;;;2.30;1.70;;;5.70;99.90;;;;;;6123133;23;20431;-58
2022/12/27 09:37:30;;;;;;;5.80;2.83;;;5.70;99.90;;;;;;6124092;23;20387;-61
2022/12/27 09:39:57;;;;;;;1.17;1.00;;;5.70;99.90;;;;;;6123065;23;20407;-63
2022/12/27 09:42:37;;;;;;;3.93;1.20;;;5.70;99.90;;;;;;6122746;23;20387;-56
2022/12/27 09:45:18;;;;;;;2.30;1.50;;;5.70;99.90;;;;;;6122501;23;20435;-63
2022/12/27 09:47:56;;;;;;;6.53;1.90;;;5.70;99.90;;;;;;6123418;23;20582;-61
2022/12/27 09:50:30;;;;;;;7.03;1.90;;;5.70;99.90;;;;;;6122674;23;20427;-61
2022/12/27 09:53:05;;;;;;;8.37;1.50;;;5.80;99.90;;;;;;6112679;23;20375;-59
2022/12/27 09:55:38;;;;;;;5.80;2.20;;;5.90;99.90;;;;;;6123436;23;20478;-62
2022/12/27 09:58:22;;;;;;;2.67;1.20;;;6.00;99.90;;;;;;6123117;23;20402;-63
2022/12/27 10:00:50;;;;;;;4.50;1.43;;;6.10;99.90;;;;;;6122676;23;20427;-58
2022/12/27 10:03:20;;;;;;;3.00;1.10;;;6.20;99.90;;;;;;6123204;23;20411;-57
2022/12/27 10:05:53;;;;;;;2.60;2.20;;;6.20;99.90;;;;;;6123125;23;20403;-64
2022/12/27 10:08:38;;;;;;;2.37;1.87;;;6.30;99.90;;;;;;6123061;23;20373;-62
2022/12/27 10:11:34;;;;;;;1.70;1.30;;;6.40;99.90;;;;;;6123787;23;20396;-58
2022/12/27 10:14:11;;;;;;;2.90;1.27;;;6.50;99.90;;;;;;6122532;23;20470;-57
2022/12/27 10:16:45;;;;;;;2.77;1.87;;;6.70;99.90;;;;;;6120766;23;20415;-62
2022/12/27 10:19:25;;;;;;;4.80;1.70;;;6.70;99.90;;;;;;6122667;23;20387;-64
2022/12/27 10:22:02;;;;;;;1.63;1.40;;;6.80;99.90;;;;;;6122277;23;20387;-61
2022/12/27 10:24:37;;;;;;;3.83;1.40;;;6.70;99.90;;;;;;6122618;23;20435;-63
2022/12/27 10:27:14;;;;;;;1.90;1.53;;;6.60;99.90;;;;;;6122746;23;20391;-62
2022/12/27 10:29:42;;;;;;;1.50;1.37;;;6.60;99.90;;;;;;6122163;23;20442;-61
2022/12/27 10:32:14;;;;;;;1.53;1.40;;;6.50;99.90;;;;;;6122148;23;20665;-58
2022/12/27 10:34:41;;;;;;;1.60;1.33;;;6.40;99.90;;;;;;6122134;23;20487;-57
2022/12/27 10:37:13;;;;;;;4.97;1.57;;;6.40;99.90;;;;;;6122793;23;20404;-64
2022/12/27 10:39:40;;;;;;;6.90;2.60;;;6.30;99.90;;;;;;6122760;23;20438;-63
2022/12/27 10:42:15;;;;;;;4.50;2.40;;;6.30;99.90;;;;;;6122758;23;20368;-63
2022/12/27 10:44:43;;;;;;;1.60;1.50;;;6.40;99.90;;;;;;6122284;23;20371;-58
2022/12/27 10:47:13;;;;;;;2.13;1.37;;;6.30;99.90;;;;;;6122584;23;20407;-62
2022/12/27 10:49:43;;;;;;;3.43;1.67;;;6.20;99.90;;;;;;6122492;23;20406;-57
2022/12/27 10:52:16;;;;;;;3.93;2.00;;;6.20;99.90;;;;;;6116100;23;20455;-63
2022/12/27 10:54:52;;;;;;;4.20;2.00;;;6.20;99.90;;;;;;6124757;23;20411;-64
2022/12/27 10:57:26;;;;;;;1.20;1.10;;;6.30;99.90;;;;;;6115492;23;20431;-63
2022/12/27 11:00:23;;;;;;;6.90;1.80;;;6.30;99.90;;;;;;6123486;23;20375;-59
2022/12/27 11:02:52;;;;;;;10.73;1.43;;;6.30;99.90;;;;;;6118591;23;20440;-61
2022/12/27 11:05:24;;;;;;;1.30;1.00;;;6.40;99.90;;;;;;6123631;23;20396;-61
2022/12/27 11:08:00;;;;;;;4.80;1.77;;;6.40;99.90;;;;;;6123493;23;20387;-62
2022/12/27 11:10:30;;;;;;;7.63;3.10;;;6.40;99.90;;;;;;6124360;23;20513;-58
2022/12/27 11:13:01;;;;;;;2.10;1.33;;;6.40;99.90;;;;;;6124039;23;20403;-62
2022/12/27 11:15:32;;;;;;;4.23;2.80;;;6.40;99.90;;;;;;6124195;23;20416;-62
2022/12/27 11:18:04;;;;;;;1.83;1.63;;;6.40;99.90;;;;;;6124003;23;20421;-57
2022/12/27 11:20:34;;;;;;;3.00;1.77;;;6.40;99.90;;;;;;6124479;23;20388;-60
2022/12/27 11:23:04;;;;;;;2.23;1.50;;;6.30;99.90;;;;;;6124739;23;20394;-61
2022/12/27 11:25:33;;;;;;;3.37;1.70;;;6.40;99.90;;;;;;6123876;23;20440;-63
2022/12/27 11:28:04;;;;;;;2.73;2.03;;;6.40;99.90;;;;;;6121894;23;20459;-62
2022/12/27 11:30:36;;;;;;;1.53;1.40;;;6.40;99.90;;;;;;6116812;23;20414;-62
2022/12/27 11:33:06;;;;;;;4.53;2.00;;;6.30;99.90;;;;;;6123688;23;20376;-61
2022/12/27 11:35:43;;;;;;;8.83;2.30;;;6.30;99.90;;;;;;6123034;23;20418;-63
2022/12/27 11:38:21;;;;;;;3.10;1.40;;;6.30;99.90;;;;;;6123850;23;20459;-61
2022/12/27 11:41:01;;;;;;;4.50;1.97;;;6.30;99.90;;;;;;6124092;23;20392;-61
2022/12/27 11:43:32;;;;;;;5.13;2.00;;;6.30;99.90;;;;;;6124289;23;20416;-60
2022/12/27 11:46:05;;;;;;;4.27;1.83;;;6.30;99.90;;;;;;6123637;23;20376;-62
2022/12/27 11:48:38;;;;;;;3.93;1.63;;;6.30;99.90;;;;;;6123945;23;20422;-60
2022/12/27 11:51:29;;;;;;;2.40;1.33;;;6.30;99.90;;;;;;6123922;23;20396;-61
2022/12/27 11:54:30;;;;;;;1.30;1.13;;;6.30;99.90;;;;;;6124327;23;20399;-63
2022/12/27 11:57:14;;;;;;;2.20;1.97;;;6.40;99.90;;;;;;6123304;23;20415;-62
2022/12/27 12:00:03;;;;;;;3.77;1.70;;;6.40;99.90;;;;;;6123714;23;20404;-67
2022/12/27 12:03:08;;;;;;;4.13;3.17;;;6.40;99.90;;;;;;6123449;23;20428;-59
2022/12/27 12:05:56;;;;;;;2.10;1.73;;;6.40;99.90;;;;;;6123823;23;20398;-62
2022/12/27 12:09:12;;;;;;;5.10;2.60;;;6.40;99.90;;;;;;6123530;23;20416;-62
2022/12/27 12:12:03;;;;;;;3.73;1.80;;;6.40;99.90;;;;;;6074822;23;20412;-63
2022/12/27 12:14:54;;;;;;;3.10;2.23;;;6.50;99.90;;;;;;6123804;23;20368;-62
2022/12/27 12:17:39;;;;;;;4.70;2.50;;;6.40;99.90;;;;;;6123316;23;20444;-61
2022/12/27 12:20:46;;;;;;;1.73;1.23;;;6.40;99.90;;;;;;6123040;23;20403;-63
2022/12/27 12:23:22;;;;;;;1.60;1.30;;;6.40;99.90;;;;;;6123016;23;20423;-62
2022/12/27 12:26:20;;;;;;;3.50;1.67;;;6.40;99.90;;;;;;6117231;23;20383;-62
2022/12/27 12:29:14;;;;;;;2.47;1.30;;;6.50;99.90;;;;;;6006076;24;20438;-63
2022/12/27 12:32:15;;;;;;;5.03;1.87;;;6.50;99.90;;;;;;6118771;23;20420;-61
2022/12/27 12:35:06;;;;;;;1.93;1.60;;;6.50;99.90;;;;;;6123106;23;20424;-64
2022/12/27 12:37:55;;;;;;;2.90;1.63;;;6.60;99.90;;;;;;6099509;23;20923;-61
2022/12/27 12:40:38;;;;;;;3.93;2.23;;;6.60;99.90;;;;;;6123157;23;20391;-60
2022/12/27 12:43:17;;;;;;;6.70;3.40;;;6.60;99.90;;;;;;6122883;23;20503;-64
2022/12/27 12:46:00;;;;;;;3.27;1.70;;;6.60;99.90;;;;;;6122850;23;20400;-62
2022/12/27 12:48:56;;;;;;;2.10;1.87;;;6.60;99.90;;;;;;6123183;23;20438;-62
2022/12/27 12:51:55;;;;;;;2.13;1.30;;;6.50;99.90;;;;;;6122463;23;20388;-62
2022/12/27 12:54:43;;;;;;;5.73;1.93;;;6.50;99.90;;;;;;6122196;23;20422;-64
2022/12/27 12:57:28;;;;;;;1.90;1.80;;;6.50;99.90;;;;;;6122405;23;20392;-63
2022/12/27 13:00:07;;;;;;;2.47;1.73;;;6.50;99.90;;;;;;6117806;23;20388;-58
2022/12/27 13:03:04;;;;;;;5.83;2.10;;;6.60;99.90;;;;;;6123252;23;20395;-59
2022/12/27 13:05:40;;;;;;;4.53;2.03;;;6.60;99.90;;;;;;6123614;23;20412;-62
2022/12/27 13:08:15;;;;;;;7.60;1.67;;;6.60;99.90;;;;;;6123051;23;20395;-64
2022/12/27 13:11:19;;;;;;;2.30;2.10;;;6.60;99.90;;;;;;6123609;23;20403;-62
2022/12/27 13:13:59;;;;;;;2.40;1.63;;;6.60;99.90;;;;;;6099081;23;20419;-63
2022/12/27 13:16:40;;;;;;;2.60;1.50;;;6.50;99.90;;;;;;6122981;23;20480;-62
2022/12/27 13:19:25;;;;;;;6.97;2.30;;;6.60;99.90;;;;;;6122731;23;20431;-64
2022/12/27 13:22:04;;;;;;;2.00;1.43;;;6.60;99.90;;;;;;6122908;23;20447;-65
2022/12/27 13:24:53;;;;;;;11.60;1.90;;;6.60;99.90;;;;;;6122920;23;20411;-62
2022/12/27 13:27:30;;;;;;;3.30;1.80;;;6.70;99.90;;;;;;6122848;23;20384;-64
2022/12/27 13:30:05;;;;;;;2.27;1.50;;;6.70;99.90;;;;;;6122370;23;20499;-63
2022/12/27 13:32:45;;;;;;;2.30;1.73;;;6.70;99.90;;;;;;6122694;23;20391;-60
2022/12/27 13:35:28;;;;;;;3.43;1.47;;;6.80;99.90;;;;;;6122305;23;20435;-61
2022/12/27 13:38:15;;;;;;;2.80;1.23;;;6.70;99.90;;;;;;6122004;23;20398;-62
2022/12/27 13:41:11;;;;;;;4.33;1.93;;;6.60;99.90;;;;;;6122235;23;20411;-65
2022/12/27 13:44:09;;;;;;;5.50;2.00;;;6.60;99.90;;;;;;6121999;23;20403;-59
2022/12/27 13:46:52;;;;;;;3.53;1.40;;;6.60;99.90;;;;;;6122447;23;20408;-62
2022/12/27 13:49:44;;;;;;;5.00;1.80;;;6.60;99.90;;;;;;6122095;23;20423;-62
2022/12/27 13:52:28;;;;;;;1.93;1.50;;;6.60;99.90;;;;;;6122125;23;20392;-63
2022/12/27 13:55:24;;;;;;;6.13;1.50;;;6.60;99.90;;;;;;6122702;23;20450;-62
2022/12/27 13:58:12;;;;;;;3.10;1.80;;;6.60;99.90;;;;;;6122697;23;20419;-62
2022/12/27 14:00:48;;;;;;;5.30;2.47;;;6.60;99.90;;;;;;6121994;23;20456;-57
2022/12/27 14:03:44;;;;;;;3.53;2.00;;;6.60;99.90;;;;;;6121595;23;20391;-61
2022/12/27 14:06:30;;;;;;;2.23;1.23;;;6.60;99.90;;;;;;6121797;23;20416;-62
2022/12/27 14:09:26;;;;;;;1.60;1.10;;;6.60;99.90;;;;;;6121608;23;20396;-60
2022/12/27 14:12:11;;;;;;;2.60;1.43;;;6.50;99.90;;;;;;6121692;23;20379;-63
2022/12/27 14:14:40;;;;;;;3.23;2.07;;;6.50;99.90;;;;;;6121937;23;20895;-62
2022/12/27 14:17:23;;;;;;;1.83;1.37;;;6.50;99.90;;;;;;6121257;23;20459;-61
2022/12/27 14:20:35;;;;;;;3.60;2.43;;;6.50;99.90;;;;;;6121268;23;20427;-63
2022/12/27 14:23:30;;;;;;;5.23;1.70;;;6.50;99.90;;;;;;6051354;23;20411;-63
2022/12/27 14:26:39;;;;;;;7.20;1.87;;;6.60;99.90;;;;;;6121563;23;20431;-62
2022/12/27 14:29:28;;;;;;;2.10;1.30;;;6.60;99.90;;;;;;6121842;23;20398;-63
2022/12/27 14:32:43;;;;;;;6.00;1.97;;;6.50;99.90;;;;;;6121753;23;20460;-61
2022/12/27 14:35:35;;;;;;;7.30;2.10;;;6.40;99.90;;;;;;6122206;23;20438;-62
2022/12/27 14:38:38;;;;;;;2.20;1.70;;;6.40;99.90;;;;;;6121482;23;20909;-63
2022/12/27 14:41:49;;;;;;;4.93;1.70;;;6.40;99.90;;;;;;6116170;23;20418;-61
2022/12/27 14:45:02;;;;;;;1.47;1.20;;;6.30;99.90;;;;;;6069644;23;20404;-62
2022/12/27 14:47:54;;;;;;;5.17;1.90;;;6.20;99.90;;;;;;6122177;23;20407;-63
2022/12/27 14:50:57;;;;;;;1.93;1.60;;;6.20;99.90;;;;;;6107198;23;20412;-64
2022/12/27 14:54:05;;;;;;;1.60;1.50;;;6.20;99.90;;;;;;6121595;23;20368;-62
2022/12/27 14:56:37;;;;;;;4.23;2.20;;;6.20;99.90;;;;;;6121099;23;20446;-62
2022/12/27 14:59:23;;;;;;;7.37;2.50;;;6.20;99.90;;;;;;6119852;23;20386;-63
2022/12/27 15:02:05;;;;;;;4.93;1.63;;;6.20;99.90;;;;;;6122133;23;20388;-61
2022/12/27 15:04:54;;;;;;;3.03;2.00;;;6.20;99.90;;;;;;6122441;23;20372;-62
2022/12/27 15:07:41;;;;;;;3.30;2.10;;;6.20;99.90;;;;;;6121574;23;20385;-61
2022/12/27 15:10:17;;;;;;;3.37;1.80;;;6.20;99.90;;;;;;6063251;23;20399;-63